createdAt,value
2018-05-23T00:00:28.357Z,8.38
2018-05-23T00:02:55.713Z,7.10
2018-05-23T00:05:23.855Z,6.78
2018-05-23T00:07:54.067Z,7.68
2018-05-23T00:10:23.711Z,7.75
2018-05-23T00:12:50.663Z,7.68
2018-05-23T00:15:17.415Z,5.75
2018-05-23T00:17:43.816Z,9.27
2018-05-23T00:20:11.085Z,7.12
2018-05-23T00:22:37.633Z,9.50
2018-05-23T00:25:06.129Z,6.07
2018-05-23T00:27:35.129Z,9.13
2018-05-23T00:30:03.311Z,6.93
2018-05-23T00:32:30.429Z,5.87
2018-05-23T00:34:59.152Z,8.57
2018-05-23T00:40:13.039Z,7.68
2018-05-23T00:42:39.593Z,6.40
2018-05-23T00:45:11.631Z,7.05
2018-05-23T00:47:37.992Z,7.00
2018-05-23T00:50:04.386Z,8.00
2018-05-23T00:52:30.859Z,8.23
2018-05-23T00:54:58.671Z,9.30
2018-05-23T00:57:28.313Z,6.18
2018-05-23T00:59:57.596Z,7.03
2018-05-23T01:02:24.671Z,8.77
2018-05-23T01:04:51.025Z,8.95
2018-05-23T01:07:19.548Z,7.80
2018-05-23T01:09:46.640Z,6.47
2018-05-23T01:12:15.201Z,13.23
2018-05-23T01:14:43.416Z,9.63
2018-05-23T01:17:16.049Z,9.10
2018-05-23T01:19:46.136Z,8.43
2018-05-23T01:22:13.195Z,6.60
2018-05-23T01:24:40.268Z,8.98
2018-05-23T01:27:07.372Z,6.22
2018-05-23T01:29:34.666Z,8.83
2018-05-23T01:32:02.130Z,7.87
2018-05-23T01:34:28.778Z,8.40
2018-05-23T01:36:57.784Z,5.82
2018-05-23T01:39:24.373Z,9.60
2018-05-23T01:41:52.129Z,10.10
2018-05-23T01:44:18.544Z,6.37
2018-05-23T01:46:44.852Z,6.60
2018-05-23T01:49:13.674Z,7.97
2018-05-23T01:51:45.140Z,10.37
2018-05-23T01:54:17.772Z,6.90
2018-05-23T01:56:48.112Z,8.90
2018-05-23T01:59:18.696Z,6.40
2018-05-23T02:01:45.461Z,6.77
2018-05-23T02:04:16.623Z,7.43
2018-05-23T02:06:44.140Z,8.47
2018-05-23T02:09:12.375Z,10.60
2018-05-23T02:11:41.703Z,9.07
2018-05-23T02:14:08.299Z,11.32
2018-05-23T02:16:34.727Z,6.87
2018-05-23T02:19:04.271Z,5.57
2018-05-23T02:21:30.860Z,6.28
2018-05-23T02:23:57.228Z,6.83
2018-05-23T02:26:23.556Z,11.53
2018-05-23T02:28:53.119Z,9.50
2018-05-23T02:31:20.475Z,6.97
2018-05-23T02:33:48.559Z,8.33
2018-05-23T02:36:14.925Z,7.40
2018-05-23T02:38:45.264Z,6.03
2018-05-23T02:41:14.150Z,6.13
2018-05-23T02:46:19.494Z,10.63
2018-05-23T02:48:46.613Z,8.32
2018-05-23T02:51:12.962Z,10.07
2018-05-23T02:53:40.388Z,6.93
2018-05-23T02:56:08.159Z,12.80
2018-05-23T02:58:45.720Z,8.70
2018-05-23T03:01:13.915Z,7.90
2018-05-23T03:03:42.594Z,6.90
2018-05-23T03:08:53.094Z,8.47
2018-05-23T03:11:21.126Z,8.37
2018-05-23T03:13:49.300Z,8.60
2018-05-23T03:16:17.818Z,6.73
2018-05-23T03:18:44.304Z,8.33
2018-05-23T03:21:16.334Z,7.20
2018-05-23T03:23:46.080Z,6.70
2018-05-23T03:26:14.278Z,9.77
2018-05-23T03:28:45.255Z,8.37
2018-05-23T03:31:13.276Z,8.77
2018-05-23T03:36:13.282Z,7.07
2018-05-23T03:38:41.598Z,6.53
2018-05-23T03:41:10.412Z,8.50
2018-05-23T03:43:36.733Z,7.40
2018-05-23T03:46:03.120Z,6.57
2018-05-23T03:48:31.942Z,7.90
2018-05-23T03:50:58.676Z,6.57
2018-05-23T03:53:25.109Z,10.27
2018-05-23T03:55:51.851Z,8.63
2018-05-23T03:58:19.897Z,5.87
2018-05-23T04:00:48.855Z,7.57
2018-05-23T04:03:16.629Z,9.07
2018-05-23T04:05:43.019Z,9.97
2018-05-23T04:08:10.981Z,8.07
2018-05-23T04:10:38.091Z,7.47
2018-05-23T04:13:04.428Z,8.23
2018-05-23T04:15:32.729Z,5.83
2018-05-23T04:17:59.041Z,14.17
2018-05-23T04:20:25.538Z,10.10
2018-05-23T04:22:56.571Z,6.80
2018-05-23T04:28:06.738Z,8.83
2018-05-23T04:30:40.073Z,5.90
2018-05-23T04:33:07.215Z,7.33
2018-05-23T04:35:34.602Z,8.10
2018-05-23T04:38:01.119Z,9.03
2018-05-23T04:40:27.589Z,8.90
2018-05-23T04:42:55.047Z,5.60
2018-05-23T04:48:23.961Z,7.50
2018-05-23T04:50:51.991Z,10.37
2018-05-23T04:55:55.861Z,8.27
2018-05-23T04:58:22.432Z,8.10
2018-05-23T05:04:06.321Z,6.03
2018-05-23T05:06:38.168Z,9.83
2018-05-23T05:09:24.216Z,7.43
2018-05-23T05:12:00.338Z,6.57
2018-05-23T05:14:27.687Z,8.03
2018-05-23T05:16:57.270Z,6.47
2018-05-23T05:19:30.069Z,7.40
2018-05-23T05:22:08.191Z,7.47
2018-05-23T05:30:10.648Z,6.43
2018-05-23T05:32:37.870Z,9.93
2018-05-23T05:35:04.364Z,10.43
2018-05-23T05:37:32.716Z,8.87
2018-05-23T05:39:59.211Z,6.50
2018-05-23T05:42:40.117Z,9.33
2018-05-23T05:45:06.567Z,10.40
2018-05-23T05:47:33.426Z,8.80
2018-05-23T05:50:01.193Z,7.20
2018-05-23T05:52:33.575Z,6.47
2018-05-23T05:55:09.377Z,7.93
2018-05-23T05:57:36.811Z,6.53
2018-05-23T06:00:03.269Z,6.77
2018-05-23T06:02:32.075Z,5.90
2018-05-23T06:04:58.469Z,8.80
2018-05-23T06:09:58.705Z,7.70
2018-05-23T06:12:25.031Z,7.23
2018-05-23T06:14:51.564Z,8.63
2018-05-23T06:17:17.967Z,7.37
2018-05-23T06:19:45.747Z,5.93
2018-05-23T06:22:27.013Z,9.20
2018-05-23T06:24:54.267Z,9.20
2018-05-23T06:27:23.681Z,6.77
2018-05-23T06:32:35.761Z,17.07
2018-05-23T06:35:11.264Z,19.97
2018-05-23T06:37:38.394Z,17.93
2018-05-23T06:40:04.993Z,14.80
2018-05-23T06:42:31.517Z,19.03
2018-05-23T06:44:57.903Z,20.13
2018-05-23T06:47:25.221Z,22.00
2018-05-23T06:49:51.741Z,19.67
2018-05-23T06:52:18.948Z,22.30
2018-05-23T06:54:57.855Z,19.97
2018-05-23T07:03:37.607Z,21.43
2018-05-23T07:06:04.059Z,23.93
2018-05-23T07:08:30.595Z,20.17
2018-05-23T07:10:57.828Z,17.17
2018-05-23T07:13:24.928Z,17.93
2018-05-23T07:15:51.330Z,14.90
2018-05-23T07:18:18.579Z,19.30
2018-05-23T07:20:44.968Z,17.03
2018-05-23T07:23:12.166Z,14.37
2018-05-23T07:25:40.080Z,15.03
2018-05-23T07:28:06.582Z,16.20
2018-05-23T07:30:32.996Z,15.83
2018-05-23T07:32:59.396Z,14.82
2018-05-23T07:35:26.466Z,12.70
2018-05-23T07:37:53.549Z,14.27
2018-05-23T07:40:20.028Z,15.37
2018-05-23T07:42:46.326Z,18.13
2018-05-23T07:45:12.652Z,18.97
2018-05-23T07:47:39.006Z,15.00
2018-05-23T07:50:05.405Z,16.70
2018-05-23T07:52:31.769Z,14.33
2018-05-23T07:54:58.851Z,13.13
2018-05-23T07:57:25.881Z,13.50
2018-05-23T07:59:52.328Z,16.10
2018-05-23T08:02:18.651Z,15.73
2018-05-23T08:04:45.245Z,16.40
2018-05-23T08:07:11.621Z,15.40
2018-05-23T08:09:38.005Z,14.13
2018-05-23T08:12:04.367Z,13.73
2018-05-23T08:14:30.784Z,12.30
2018-05-23T08:16:57.227Z,14.00
2018-05-23T08:19:24.467Z,15.33
2018-05-23T08:21:50.775Z,13.53
2018-05-23T08:24:17.928Z,13.57
2018-05-23T08:26:44.328Z,14.43
2018-05-23T08:29:11.537Z,15.20
2018-05-23T08:31:37.870Z,15.83
2018-05-23T08:34:04.367Z,13.33
2018-05-23T08:36:31.563Z,14.73
2018-05-23T08:38:57.897Z,12.83
2018-05-23T08:41:24.941Z,12.13
2018-05-23T08:43:51.282Z,11.70
2018-05-23T08:46:17.603Z,11.50
2018-05-23T08:48:44.461Z,11.03
2018-05-23T08:51:10.772Z,10.00
2018-05-23T08:53:38.127Z,10.63
2018-05-23T08:56:04.570Z,11.37
2018-05-23T08:58:31.542Z,11.13
2018-05-23T09:00:57.898Z,9.13
2018-05-23T09:03:24.508Z,10.02
2018-05-23T09:05:50.868Z,8.87
2018-05-23T09:08:17.269Z,10.33
2018-05-23T09:10:44.158Z,8.40
2018-05-23T09:13:11.606Z,8.17
2018-05-23T09:15:37.941Z,8.27
2018-05-23T09:20:41.715Z,7.23
2018-05-23T09:23:08.074Z,7.10
2018-05-23T09:28:21.061Z,8.37
2018-05-23T09:30:51.275Z,9.57
2018-05-23T09:33:18.445Z,9.83
2018-05-23T09:38:24.159Z,8.70
2018-05-23T09:40:51.737Z,8.63
2018-05-23T09:43:19.781Z,11.47
2018-05-23T09:45:46.149Z,9.77
2018-05-23T09:48:13.549Z,7.70
2018-05-23T09:50:39.985Z,9.67
2018-05-23T09:55:51.910Z,9.17
2018-05-23T09:58:20.128Z,7.47
2018-05-23T10:00:47.899Z,8.03
2018-05-23T10:03:14.272Z,9.10
2018-05-23T10:05:40.596Z,8.40
2018-05-23T10:08:07.400Z,7.83
2018-05-23T10:10:33.747Z,7.47
2018-05-23T10:13:07.199Z,11.02
2018-05-23T10:15:35.197Z,8.53
2018-05-23T10:18:01.718Z,8.25
2018-05-23T10:20:29.780Z,9.25
2018-05-23T10:22:58.828Z,8.40
2018-05-23T10:25:27.380Z,8.47
2018-05-23T10:27:54.825Z,7.85
2018-05-23T10:30:21.156Z,11.23
2018-05-23T10:32:47.874Z,11.50
2018-05-23T10:35:14.368Z,8.73
2018-05-23T10:37:41.705Z,9.88
2018-05-23T10:40:08.510Z,10.05
2018-05-23T10:42:35.697Z,9.47
2018-05-23T10:45:02.123Z,7.97
2018-05-23T10:47:28.504Z,10.77
2018-05-23T10:49:55.776Z,10.70
2018-05-23T10:52:24.673Z,9.93
2018-05-23T10:54:51.243Z,10.23
2018-05-23T10:57:18.328Z,9.73
2018-05-23T10:59:44.808Z,9.35
2018-05-23T11:02:11.421Z,9.93
2018-05-23T11:04:37.865Z,10.40
2018-05-23T11:07:04.883Z,10.97
2018-05-23T11:09:32.371Z,9.23
2018-05-23T11:11:58.801Z,11.23
2018-05-23T11:14:27.982Z,9.57
2018-05-23T11:16:55.422Z,11.68
2018-05-23T11:19:22.664Z,9.95
2018-05-23T11:21:51.100Z,11.12
2018-05-23T11:24:21.086Z,11.20
2018-05-23T11:26:50.660Z,12.85
2018-05-23T11:29:17.819Z,12.05
2018-05-23T11:31:48.779Z,12.23
2018-05-23T11:34:19.421Z,11.38
2018-05-23T11:36:47.448Z,11.50
2018-05-23T11:39:16.056Z,9.90
2018-05-23T11:41:43.001Z,13.25
2018-05-23T11:44:11.816Z,11.40
2018-05-23T11:46:40.079Z,11.82
2018-05-23T11:49:09.001Z,10.10
2018-05-23T11:51:38.635Z,12.88
2018-05-23T11:54:05.214Z,12.80
2018-05-23T11:56:31.652Z,11.90
2018-05-23T11:58:59.661Z,12.05
2018-05-23T12:01:26.150Z,11.27
2018-05-23T12:03:52.594Z,12.75
2018-05-23T12:06:19.019Z,13.77
2018-05-23T12:08:45.364Z,10.38
2018-05-23T12:11:11.732Z,10.93
2018-05-23T12:13:38.086Z,10.88
2018-05-23T12:16:05.269Z,12.32
2018-05-23T12:18:32.212Z,12.85
2018-05-23T12:20:58.715Z,13.00
2018-05-23T12:23:25.029Z,10.90
2018-05-23T12:25:52.159Z,11.88
2018-05-23T12:28:18.671Z,13.95
2018-05-23T12:30:45.934Z,10.20
2018-05-23T12:33:12.566Z,10.02
2018-05-23T12:35:38.992Z,10.73
2018-05-23T12:38:06.167Z,10.60
2018-05-23T12:40:32.587Z,10.77
2018-05-23T12:42:59.021Z,10.27
2018-05-23T12:45:25.410Z,10.55
2018-05-23T12:47:52.716Z,11.38
2018-05-23T12:50:19.105Z,12.48
2018-05-23T12:52:45.508Z,10.40
2018-05-23T12:55:11.918Z,11.60
2018-05-23T12:57:39.209Z,10.63
2018-05-23T13:00:06.346Z,12.90
2018-05-23T13:02:32.857Z,12.73
2018-05-23T13:04:59.251Z,12.98
2018-05-23T13:07:25.936Z,11.20
2018-05-23T13:09:53.035Z,12.60
2018-05-23T13:12:19.641Z,17.58
2018-05-23T13:14:46.054Z,18.60
2018-05-23T13:17:12.498Z,20.98
2018-05-23T13:19:38.830Z,19.35
2018-05-23T13:22:05.262Z,22.33
2018-05-23T13:24:31.766Z,22.55
2018-05-23T13:26:58.265Z,19.08
2018-05-23T13:29:24.648Z,20.50
2018-05-23T13:31:51.053Z,18.10
2018-05-23T13:34:18.363Z,19.80
2018-05-23T13:36:45.621Z,17.65
2018-05-23T13:39:12.769Z,18.45
2018-05-23T13:41:39.193Z,18.08
2018-05-23T13:44:05.562Z,16.48
2018-05-23T13:46:32.063Z,18.25
2018-05-23T13:48:58.588Z,16.70
2018-05-23T13:51:25.479Z,18.60
2018-05-23T13:53:51.886Z,17.33
2018-05-23T13:56:18.420Z,18.45
2018-05-23T13:58:44.825Z,17.62
2018-05-23T14:01:11.301Z,16.33
2018-05-23T14:03:37.698Z,18.02
2018-05-23T14:06:05.618Z,17.77
2018-05-23T14:08:33.546Z,18.42
2018-05-23T14:11:00.053Z,17.35
2018-05-23T14:13:27.289Z,14.85
2018-05-23T14:15:53.645Z,15.95
2018-05-23T14:18:21.527Z,15.15
2018-05-23T14:20:49.093Z,12.00
2018-05-23T14:23:23.337Z,14.07
2018-05-23T14:26:00.154Z,14.65
2018-05-23T14:28:37.248Z,12.85
2018-05-23T14:31:06.047Z,12.15
2018-05-23T14:33:38.087Z,11.98
2018-05-23T14:36:10.239Z,12.02
2018-05-23T14:38:46.878Z,14.40
2018-05-23T14:41:19.158Z,12.27
2018-05-23T14:43:47.518Z,11.12
2018-05-23T14:46:13.874Z,10.52
2018-05-23T14:48:41.273Z,12.73
2018-05-23T14:51:07.972Z,12.73
2018-05-23T14:53:34.376Z,11.10
2018-05-23T14:56:02.174Z,12.43
2018-05-23T14:58:30.999Z,11.68
2018-05-23T15:00:57.528Z,11.63
2018-05-23T15:03:25.212Z,11.07
2018-05-23T15:05:51.661Z,12.85
2018-05-23T15:08:18.158Z,11.35
2018-05-23T15:10:44.995Z,12.63
2018-05-23T15:13:11.349Z,12.65
2018-05-23T15:15:37.834Z,12.88
2018-05-23T15:18:05.023Z,12.43
2018-05-23T15:20:31.519Z,14.10
2018-05-23T15:22:58.621Z,13.50
2018-05-23T15:28:03.340Z,11.80
2018-05-23T15:30:29.745Z,10.98
2018-05-23T15:32:56.071Z,12.57
2018-05-23T15:35:23.183Z,14.25
2018-05-23T15:37:55.228Z,13.05
2018-05-23T15:40:21.676Z,14.27
2018-05-23T15:42:48.007Z,15.40
2018-05-23T15:45:14.825Z,12.85
2018-05-23T15:47:41.204Z,13.80
2018-05-23T15:50:07.513Z,14.32
2018-05-23T15:52:33.826Z,14.38
2018-05-23T15:55:00.297Z,14.77
2018-05-23T15:57:27.357Z,14.13
2018-05-23T15:59:53.724Z,12.85
2018-05-23T16:02:20.061Z,14.50
2018-05-23T16:04:46.375Z,14.20
2018-05-23T16:07:13.469Z,12.27
2018-05-23T16:09:39.772Z,13.02
2018-05-23T16:12:06.824Z,12.60
2018-05-23T16:14:33.174Z,12.27
2018-05-23T16:16:59.514Z,11.77
2018-05-23T16:19:25.812Z,13.52
2018-05-23T16:21:52.090Z,11.27
2018-05-23T16:24:18.416Z,11.95
2018-05-23T16:26:44.765Z,10.57
2018-05-23T16:29:11.067Z,15.07
2018-05-23T16:31:37.392Z,11.12
2018-05-23T16:34:04.472Z,12.50
2018-05-23T16:36:30.962Z,11.02
2018-05-23T16:38:57.793Z,12.77
2018-05-23T16:41:24.188Z,11.65
2018-05-23T16:43:50.645Z,10.65
2018-05-23T16:46:17.548Z,12.73
2018-05-23T16:48:43.869Z,11.10
2018-05-23T16:51:10.154Z,10.73
2018-05-23T16:53:36.568Z,12.55
2018-05-23T16:56:03.036Z,12.18
2018-05-23T16:58:29.508Z,11.48
2018-05-23T17:00:55.884Z,13.40
2018-05-23T17:06:06.880Z,11.43
2018-05-23T17:08:34.581Z,12.93
2018-05-23T17:11:01.052Z,12.85
2018-05-23T17:13:28.807Z,12.02
2018-05-23T17:15:55.222Z,12.98
2018-05-23T17:18:22.625Z,12.80
2018-05-23T17:20:49.048Z,10.60
2018-05-23T17:23:15.442Z,9.32
2018-05-23T17:25:42.541Z,13.60
2018-05-23T17:28:08.883Z,11.63
2018-05-23T17:30:35.263Z,10.45
2018-05-23T17:33:01.783Z,10.65
2018-05-23T17:35:34.989Z,10.02
2018-05-23T17:38:09.607Z,13.38
2018-05-23T17:40:35.971Z,10.52
2018-05-23T17:43:03.713Z,10.27
2018-05-23T17:45:31.713Z,9.73
2018-05-23T17:48:00.409Z,9.20
2018-05-23T17:50:27.374Z,11.02
2018-05-23T17:52:53.711Z,10.23
2018-05-23T17:55:20.200Z,11.15
2018-05-23T17:57:47.261Z,9.57
2018-05-23T18:00:14.324Z,12.10
2018-05-23T18:02:40.741Z,10.05
2018-05-23T18:05:11.152Z,11.52
2018-05-23T18:07:37.536Z,10.60
2018-05-23T18:10:03.889Z,11.45
2018-05-23T18:12:30.167Z,11.25
2018-05-23T18:14:56.514Z,9.25
2018-05-23T18:17:22.913Z,11.63
2018-05-23T18:19:50.890Z,11.00
2018-05-23T18:22:17.497Z,11.98
2018-05-23T18:24:48.265Z,10.88
2018-05-23T18:27:16.064Z,12.20
2018-05-23T18:29:43.410Z,12.40
2018-05-23T18:32:09.792Z,11.73
2018-05-23T18:34:36.755Z,14.38
2018-05-23T18:37:03.103Z,15.48
2018-05-23T18:39:32.487Z,14.38
2018-05-23T18:41:59.067Z,15.63
2018-05-23T18:44:28.138Z,16.85
2018-05-23T18:46:56.139Z,14.45
2018-05-23T18:49:23.280Z,16.33
2018-05-23T18:51:49.688Z,15.45
2018-05-23T18:54:17.147Z,18.25
2018-05-23T18:59:15.910Z,17.05
2018-05-23T19:01:44.613Z,18.37
2018-05-23T19:04:12.888Z,22.08
2018-05-23T19:06:40.887Z,18.67
2018-05-23T19:09:12.358Z,16.80
2018-05-23T19:11:39.475Z,16.08
2018-05-23T19:14:05.954Z,19.87
2018-05-23T19:16:35.235Z,20.85
2018-05-23T19:19:01.850Z,21.60
2018-05-23T19:21:28.201Z,18.62
2018-05-23T19:23:54.539Z,17.50
2018-05-23T19:26:20.885Z,16.92
2018-05-23T19:28:47.247Z,17.23
2018-05-23T19:31:13.913Z,18.50
2018-05-23T19:33:40.357Z,18.23
2018-05-23T19:36:07.729Z,16.35
2018-05-23T19:38:34.191Z,14.68
2018-05-23T19:41:02.013Z,15.05
2018-05-23T19:43:29.024Z,12.75
2018-05-23T19:45:55.360Z,14.07
2018-05-23T19:48:24.962Z,15.35
2018-05-23T19:50:52.225Z,16.05
2018-05-23T19:53:22.210Z,14.32
2018-05-23T19:55:49.453Z,13.25
2018-05-23T19:58:19.649Z,13.18
2018-05-23T20:00:48.148Z,12.55
2018-05-23T20:03:15.486Z,17.37
2018-05-23T20:05:41.853Z,14.23
2018-05-23T20:08:08.569Z,12.50
2018-05-23T20:10:36.961Z,14.48
2018-05-23T20:13:07.217Z,10.43
2018-05-23T20:15:34.831Z,13.32
2018-05-23T20:18:02.592Z,12.60
2018-05-23T20:20:33.204Z,11.52
2018-05-23T20:23:00.692Z,11.50
2018-05-23T20:28:02.832Z,11.75
2018-05-23T20:30:38.928Z,11.27
2018-05-23T20:33:06.300Z,11.40
2018-05-23T20:35:32.885Z,13.00
2018-05-23T20:38:01.606Z,12.63
2018-05-23T20:40:30.838Z,12.88
2018-05-23T20:43:02.121Z,10.60
2018-05-23T20:45:31.092Z,11.50
2018-05-23T20:48:01.934Z,10.98
2018-05-23T20:50:29.862Z,9.48
2018-05-23T20:52:58.634Z,11.00
2018-05-23T20:55:28.237Z,11.88
2018-05-23T20:57:56.559Z,10.35
2018-05-23T21:00:22.961Z,11.38
2018-05-23T21:02:50.151Z,10.30
2018-05-23T21:05:18.427Z,11.55
2018-05-23T21:07:44.878Z,10.43
2018-05-23T21:10:11.303Z,11.93
2018-05-23T21:12:39.280Z,13.57
2018-05-23T21:17:42.080Z,10.90
2018-05-23T21:20:10.210Z,11.02
2018-05-23T21:22:36.701Z,11.75
2018-05-23T21:25:04.759Z,11.60
2018-05-23T21:30:21.173Z,11.27
2018-05-23T21:32:47.543Z,13.62
2018-05-23T21:35:13.895Z,15.40
2018-05-23T21:37:40.326Z,11.82
2018-05-23T21:40:06.664Z,12.07
2018-05-23T21:42:35.554Z,12.40
2018-05-23T21:45:05.126Z,12.60
2018-05-23T21:47:31.966Z,12.23
2018-05-23T21:50:00.547Z,12.98
2018-05-23T21:52:27.077Z,12.23
2018-05-23T21:54:53.530Z,13.45
2018-05-23T21:57:21.218Z,10.73
2018-05-23T21:59:47.571Z,13.40
2018-05-23T22:02:13.888Z,14.40
2018-05-23T22:04:40.520Z,11.68
2018-05-23T22:07:07.942Z,14.90
2018-05-23T22:09:35.014Z,11.60
2018-05-23T22:12:01.340Z,12.60
2018-05-23T22:14:27.705Z,13.98
2018-05-23T22:16:54.774Z,13.48
2018-05-23T22:19:21.210Z,16.67
2018-05-23T22:21:47.631Z,11.23
2018-05-23T22:24:14.210Z,12.85
2018-05-23T22:26:43.150Z,15.18
2018-05-23T22:29:14.377Z,14.82
2018-05-23T22:31:43.149Z,15.32
2018-05-23T22:34:10.836Z,15.52
2018-05-23T22:36:38.191Z,13.80
2018-05-23T22:39:05.940Z,14.63
2018-05-23T22:41:34.190Z,17.30
2018-05-23T22:44:04.427Z,14.48
2018-05-23T22:46:32.039Z,14.60
2018-05-23T22:48:59.977Z,15.13
2018-05-23T22:51:27.133Z,16.50
2018-05-23T22:53:55.633Z,14.30
2018-05-23T22:56:22.117Z,15.55
2018-05-23T22:58:48.829Z,16.80
2018-05-23T23:01:15.539Z,14.93
2018-05-23T23:03:45.929Z,15.88
2018-05-23T23:06:13.354Z,15.63
2018-05-23T23:08:40.563Z,13.62
2018-05-23T23:11:07.699Z,16.65
2018-05-23T23:13:37.251Z,13.68
2018-05-23T23:16:03.955Z,17.50
2018-05-23T23:18:30.484Z,17.45
2018-05-23T23:21:02.581Z,18.05
2018-05-23T23:23:30.793Z,17.40
2018-05-23T23:25:58.245Z,18.60
2018-05-23T23:28:24.619Z,16.10
2018-05-23T23:30:51.725Z,17.37
2018-05-23T23:33:18.056Z,17.42
2018-05-23T23:35:44.521Z,18.48
2018-05-23T23:38:10.923Z,18.60
2018-05-23T23:40:42.010Z,18.40
2018-05-23T23:43:14.420Z,16.87
2018-05-23T23:45:41.662Z,19.10
2018-05-23T23:48:10.818Z,17.00
2018-05-23T23:50:39.264Z,15.13
2018-05-23T23:55:40.902Z,18.17
2018-05-23T23:58:08.645Z,17.55
